Hlavní strana
METAR-TAF:

METAR-TAF

Letiště :

Bahrajn, Bahrajn

zeměpisná šířka: 26-16N, zeměpisná délka: 050-39E, výška: 2 m

Aktuální stav počasí

Zpráva byla vytvořena před 15 minutami, v 19:30 UTC
vítr z různých směrů 2 kt
Teplota 22°C
Vlhkost vzduchu 60%
Tlak 1021 hPa
Viditelnost 10 km a více
Žádná oblačnost pod 1500 m, nevyskytují se cumulonimby.

METAR: OBBI 051930Z VRB02KT CAVOK 22/14 Q1021 NOSIG

Čas: 22:45 (19:45 UTC)

Předpověď počasí

Zpráva byla vytvořena před 2 hodinami a 45 minutami, v 17:00 UTC
Předpověď platná od 05 v 18 UTC do 07 v 00 UTC
Severoseverozápadní vítr 6 kt
Viditelnost 10 km a více
Žádná oblačnost pod 1500 m, nevyskytují se cumulonimby.
Změna
od 06 v 13 UTC do 06 v 15 UTC
Východní vítr 10 kt

TAF: OBBI 051700Z 0518/0700 33006KT CAVOK BECMG 0613/0615 08010KT

Stav a předpovědi počasí z více než 4 000 letišť (zprávy METAR a TAF).

Červené a žluté tečky na mapě představují dostupné meteorologické stanice.

Když kurzor umístíte na tečku, zobrazí se název stanice.

Pak kliknutím zobrazíte stav a předpověď počasí.

Chcete-li změnit mapu, kliknutím na zelené tlačítko se znaménkem +mapu přiblížíte, kliknutím na zelené tlačítko se znaménkem – mapu oddálíte a kliknutím na zelené šipky přejdete na sousední mapy.


METAR-TAF: